Aviation Digital Data Service (ADDS)

Output produced by METARs form (0127 UTC 18 December 2017)
found at http://aviationweather.gov/adds/metars/
 
KMPV 172334Z 1800/1824 00000KT P6SM SKC 
     FM180900 VRB03KT P6SM OVC110 
     FM181200 VRB03KT 5SM -SN BR OVC025 
     TEMPO 1812/1815 2SM -SN BR OVC020 
     FM181500 VRB03KT 1SM -SN BR OVC020 
     FM181900 17005KT P6SM OVC015